Ana Sayfa
METAR-TAF:

METAR-TAF

Havaalanları :

Yuma, Arizona, Amerika Birleşik Devletleri

Enlem: 32-37-25N, Boylam: 113-45-50W, yükseklik: 64 m

Güncel hava durumu gözlemi

Rapor saat 07:57 UTC de 1 saat ve 5 dakika önce yapıldı.
Rüzgar kuzey/kuzeybatıdan 7 kt
Sıcaklık 22°C
Nem 38%
Basınç 1007 hPa
Görüş mesafesi: 16.1 km
Açık gökyüzü

METAR: KNYL 070757Z AUTO 34007KT 10SM CLR 22/07 A2973 RMK AO2 SLP063 T02170067 $

Saat: 02:02 (09:02 UTC)

Tahmin

Ayın 07'si saat 03 UTC'den ayın 08'si saat 03 UTC'ye kadar geçerli Tahmin
Rüzgar değişken yönden 5 kt
Görüş mesafesi 10 km veya daha fazla
Açık gökyüzü
Geçici
ayın 07'si saat 03 UTC'den ayın 07'si saat 09 UTC'ye kadar
Rüzgar batıdan 12 kt

TAF: KNYL 0703/0803 VRB05KT 9999 SKC QNH2966INS TEMPO 0703/0709 27012KT T33/0622Z T20/0712Z T33/0722Z

4.000'den fazla havaalanı için hava durumu gözlemleri ve tahminleri (METAR ve TAF raporları).

Kullanılabilir istasyonlar harita üzerinde sarı ve kırmızı noktalarla gösterilir.

İstasyonun adını görmek için fareyi noktanın üzerinde gezdirin.

Sonrasında hava gözlem ve tahminlerini görmek için tıklayın.

Haritayı değiştirmek için: yaklaştırmak için siyah artı işaretli yeşil düğmeye ve uzaklaştırmak için de eksi işaretli düğmeye hızla tıklayın; bitişik haritalar için yeşil okları kullanın.


METAR-TAF: